createdAt,value
2022-08-20T00:00:39.340Z,100897.11
2022-08-20T00:01:42.726Z,100895.65
2022-08-20T00:02:47.940Z,100892.86
2022-08-20T00:03:53.237Z,100892.56
2022-08-20T00:04:56.351Z,100897.49
2022-08-20T00:06:07.103Z,100895.20
2022-08-20T00:07:09.848Z,100895.17
2022-08-20T00:08:13.487Z,100896.69
2022-08-20T00:09:16.190Z,100901.05
2022-08-20T00:10:19.040Z,100898.81
2022-08-20T00:11:23.530Z,100902.30
2022-08-20T00:12:28.244Z,100902.35
2022-08-20T00:13:33.881Z,100900.99
2022-08-20T00:14:37.042Z,100899.70
2022-08-20T00:15:40.069Z,100902.92
2022-08-20T00:16:42.855Z,100901.43
2022-08-20T00:17:45.811Z,100899.74
2022-08-20T00:18:48.731Z,100899.45
2022-08-20T00:19:51.424Z,100905.39
2022-08-20T00:20:55.313Z,100902.65
2022-08-20T00:21:58.525Z,100901.05
2022-08-20T00:23:03.138Z,100904.38
2022-08-20T00:24:07.209Z,100907.02
2022-08-20T00:25:10.693Z,100905.27
2022-08-20T00:26:13.877Z,100907.48
2022-08-20T00:27:16.618Z,100908.48
2022-08-20T00:28:19.603Z,100912.65
2022-08-20T00:29:22.625Z,100914.20
2022-08-20T00:30:26.501Z,100909.70
2022-08-20T00:31:29.241Z,100911.58
2022-08-20T00:32:32.138Z,100909.83
2022-08-20T00:33:35.001Z,100904.68
2022-08-20T00:34:37.679Z,100904.98
2022-08-20T00:35:47.356Z,100903.47
2022-08-20T00:36:50.082Z,100899.84
2022-08-20T00:37:55.387Z,100903.10
2022-08-20T00:39:00.128Z,100899.48
2022-08-20T00:40:04.381Z,100902.06
2022-08-20T00:41:09.193Z,100896.52
2022-08-20T00:42:12.022Z,100894.93
2022-08-20T00:43:29.727Z,100889.34
2022-08-20T00:44:32.621Z,100886.71
2022-08-20T00:45:35.692Z,100882.75
2022-08-20T00:46:38.861Z,100883.20
2022-08-20T00:47:51.454Z,100882.23
2022-08-20T00:48:55.879Z,100887.33
2022-08-20T00:49:58.901Z,100886.40
2022-08-20T00:51:05.686Z,100883.11
2022-08-20T00:52:12.810Z,100886.11
2022-08-20T00:53:15.689Z,100888.27
2022-08-20T00:54:20.669Z,100891.39
2022-08-20T00:55:27.409Z,100895.19
2022-08-20T00:56:36.204Z,100899.48
2022-08-20T00:57:59.972Z,100903.46
2022-08-20T00:59:11.331Z,100908.77
2022-08-20T01:00:28.132Z,100911.58
2022-08-20T01:01:34.530Z,100914.23
2022-08-20T01:02:58.206Z,100912.27
2022-08-20T01:04:00.962Z,100912.83
2022-08-20T01:05:05.049Z,100917.36
2022-08-20T01:06:09.314Z,100917.78
2022-08-20T01:07:12.162Z,100919.23
2022-08-20T01:08:16.937Z,100919.96
2022-08-20T01:09:49.553Z,100921.02
2022-08-20T01:10:44.891Z,100916.91
2022-08-20T01:11:47.672Z,100912.13
2022-08-20T01:12:59.019Z,100904.33
2022-08-20T01:14:23.927Z,100896.91
2022-08-20T01:15:31.193Z,100890.91
2022-08-20T01:16:36.619Z,100893.55
2022-08-20T01:17:51.608Z,100887.05
2022-08-20T01:19:00.018Z,100885.46
2022-08-20T01:20:13.770Z,100885.80
2022-08-20T01:21:18.730Z,100885.63
2022-08-20T01:22:44.120Z,100880.25
2022-08-20T01:23:49.675Z,100886.30
2022-08-20T01:24:56.440Z,100888.73
2022-08-20T01:26:03.128Z,100889.45
2022-08-20T01:27:06.069Z,100889.03
2022-08-20T01:28:09.891Z,100892.72
2022-08-20T01:29:22.453Z,100893.27
2022-08-20T01:31:46.535Z,100896.28
2022-08-20T01:32:49.652Z,100894.23
2022-08-20T01:33:53.685Z,100892.18
2022-08-20T01:34:56.453Z,100888.05
2022-08-20T01:36:00.585Z,100886.98
2022-08-20T01:37:03.601Z,100885.83
2022-08-20T01:38:07.258Z,100889.92
2022-08-20T01:39:12.295Z,100888.73
2022-08-20T01:40:17.365Z,100887.15
2022-08-20T01:41:28.585Z,100884.08
2022-08-20T01:42:37.481Z,100887.90
2022-08-20T01:43:58.315Z,100887.98
2022-08-20T01:45:03.283Z,100888.70
2022-08-20T01:46:08.185Z,100890.64
2022-08-20T01:47:16.018Z,100888.20
2022-08-20T01:48:19.592Z,100889.85
2022-08-20T01:49:25.189Z,100886.10
2022-08-20T01:50:28.969Z,100883.64
2022-08-20T01:51:31.923Z,100885.59
2022-08-20T01:52:46.747Z,100890.33
2022-08-20T01:53:51.302Z,100892.69
2022-08-20T01:54:54.427Z,100895.73
2022-08-20T01:55:57.161Z,100899.87
2022-08-20T01:57:02.589Z,100902.86
2022-08-20T01:58:05.455Z,100903.64
2022-08-20T01:59:08.178Z,100904.73
2022-08-20T02:00:19.825Z,100904.58
2022-08-20T02:01:33.876Z,100906.25
2022-08-20T02:02:49.343Z,100902.94
2022-08-20T02:03:53.934Z,100902.39
2022-08-20T02:05:00.727Z,100902.30
2022-08-20T02:06:03.576Z,100902.13
2022-08-20T02:07:08.284Z,100903.59
2022-08-20T02:08:10.982Z,100906.27
2022-08-20T02:09:16.138Z,100907.66
2022-08-20T02:10:19.159Z,100909.45
2022-08-20T02:11:22.691Z,100917.77
2022-08-20T02:12:25.560Z,100918.55
2022-08-20T02:13:28.353Z,100917.89
2022-08-20T02:14:31.556Z,100919.96
2022-08-20T02:15:34.611Z,100916.91
2022-08-20T02:16:40.113Z,100918.55
2022-08-20T02:17:42.948Z,100916.09
2022-08-20T02:18:45.694Z,100914.21
2022-08-20T02:19:50.870Z,100908.06
2022-08-20T02:20:53.864Z,100910.59
2022-08-20T02:21:58.762Z,100913.81
2022-08-20T02:23:01.686Z,100912.27
2022-08-20T02:24:04.870Z,100911.80
2022-08-20T02:25:08.900Z,100914.75
2022-08-20T02:26:12.075Z,100917.36
2022-08-20T02:27:15.170Z,100916.70
2022-08-20T02:28:20.563Z,100921.14
2022-08-20T02:29:23.955Z,100921.86
2022-08-20T02:30:29.241Z,100920.94
2022-08-20T02:31:34.922Z,100917.61
2022-08-20T02:32:38.548Z,100921.96
2022-08-20T02:33:41.456Z,100917.94
2022-08-20T02:35:08.758Z,100912.70
2022-08-20T02:36:12.759Z,100913.25
2022-08-20T02:37:16.436Z,100911.50
2022-08-20T02:38:19.483Z,100911.79
2022-08-20T02:39:22.290Z,100911.36
2022-08-20T02:40:30.079Z,100909.02
2022-08-20T02:41:35.116Z,100916.50
2022-08-20T02:42:39.146Z,100920.16
2022-08-20T02:43:41.922Z,100922.35
2022-08-20T02:44:44.632Z,100922.71
2022-08-20T02:45:47.337Z,100923.02
2022-08-20T02:46:50.171Z,100923.60
2022-08-20T02:47:54.265Z,100925.87
2022-08-20T02:48:57.269Z,100927.33
2022-08-20T02:50:00.011Z,100926.33
2022-08-20T02:51:04.962Z,100931.98
2022-08-20T02:52:07.750Z,100936.34
2022-08-20T02:53:10.699Z,100938.85
2022-08-20T02:54:13.924Z,100940.50
2022-08-20T02:55:23.699Z,100941.49
2022-08-20T02:56:30.322Z,100941.77
2022-08-20T02:57:33.272Z,100942.50
2022-08-20T02:58:36.334Z,100947.61
2022-08-20T02:59:39.060Z,100944.41
2022-08-20T03:00:41.817Z,100949.49
2022-08-20T03:01:44.887Z,100951.17
2022-08-20T03:02:48.611Z,100953.48
2022-08-20T03:03:51.551Z,100953.59
2022-08-20T03:04:54.313Z,100955.02
2022-08-20T03:05:58.695Z,100954.70
2022-08-20T03:07:01.485Z,100951.58
2022-08-20T03:08:04.607Z,100949.81
2022-08-20T03:09:09.112Z,100945.83
2022-08-20T03:10:12.599Z,100944.92
2022-08-20T03:11:15.495Z,100946.72
2022-08-20T03:12:18.433Z,100946.80
2022-08-20T03:13:22.038Z,100946.05
2022-08-20T03:14:25.316Z,100946.59
2022-08-20T03:15:29.065Z,100947.08
2022-08-20T03:16:32.201Z,100949.48
2022-08-20T03:17:35.198Z,100948.76
2022-08-20T03:18:39.610Z,100945.70
2022-08-20T03:19:42.427Z,100950.64
2022-08-20T03:20:46.035Z,100951.70
2022-08-20T03:21:49.198Z,100955.77
2022-08-20T03:22:52.442Z,100961.14
2022-08-20T03:23:55.204Z,100961.30
2022-08-20T03:24:58.212Z,100956.24
2022-08-20T03:26:01.597Z,100959.10
2022-08-20T03:27:04.499Z,100961.66
2022-08-20T03:28:07.212Z,100962.41
2022-08-20T03:29:10.321Z,100963.61
2022-08-20T03:30:13.875Z,100962.90
2022-08-20T03:31:16.812Z,100961.58
2022-08-20T03:32:19.513Z,100962.25
2022-08-20T03:33:22.272Z,100963.02
2022-08-20T03:34:25.440Z,100966.93
2022-08-20T03:35:29.149Z,100968.48
2022-08-20T03:36:32.053Z,100973.10
2022-08-20T03:37:36.027Z,100979.67
2022-08-20T03:38:42.152Z,100979.26
2022-08-20T03:39:44.866Z,100975.70
2022-08-20T03:40:48.034Z,100981.30
2022-08-20T03:41:50.755Z,100984.73
2022-08-20T03:42:53.663Z,100987.94
2022-08-20T03:43:56.462Z,100988.54
2022-08-20T03:44:59.473Z,100987.66
2022-08-20T03:46:02.490Z,100987.22
2022-08-20T03:47:09.264Z,100987.39
2022-08-20T03:48:14.603Z,100992.36
2022-08-20T03:49:17.465Z,100994.08
2022-08-20T03:50:24.867Z,100992.98
2022-08-20T03:51:29.210Z,100991.92
2022-08-20T03:52:32.189Z,100990.31
2022-08-20T03:53:35.787Z,100993.96
2022-08-20T03:54:38.529Z,100992.44
2022-08-20T03:55:42.003Z,100993.77
2022-08-20T03:56:48.075Z,100993.55
2022-08-20T03:57:52.834Z,100992.37
2022-08-20T03:58:55.568Z,100988.22
2022-08-20T03:59:58.674Z,100989.48
2022-08-20T04:01:01.802Z,100996.29
2022-08-20T04:02:05.370Z,100998.39
2022-08-20T04:03:08.594Z,100998.68
2022-08-20T04:04:12.311Z,101000.38
2022-08-20T04:05:15.666Z,101001.67
2022-08-20T04:06:18.397Z,101004.17
2022-08-20T04:07:25.849Z,101002.98
2022-08-20T04:08:29.563Z,101003.61
2022-08-20T04:09:32.492Z,100999.02
2022-08-20T04:10:35.580Z,100999.73
2022-08-20T04:11:38.407Z,101003.35
2022-08-20T04:12:41.238Z,101001.55
2022-08-20T04:13:51.545Z,101002.18
2022-08-20T04:14:54.849Z,101000.80
2022-08-20T04:15:58.420Z,101001.90
2022-08-20T04:17:03.841Z,101000.58
2022-08-20T04:18:07.646Z,101002.33
2022-08-20T04:19:10.445Z,101000.42
2022-08-20T04:20:15.351Z,101003.34
2022-08-20T04:21:18.041Z,101002.55
2022-08-20T04:22:20.809Z,101001.70
2022-08-20T04:23:23.642Z,100999.89
2022-08-20T04:24:31.747Z,101004.47
2022-08-20T04:25:36.346Z,101007.19
2022-08-20T04:26:39.065Z,101014.53
2022-08-20T04:27:42.200Z,101013.83
2022-08-20T04:28:44.939Z,101014.81
2022-08-20T04:29:47.676Z,101014.27
2022-08-20T04:30:51.882Z,101013.85
2022-08-20T04:31:55.972Z,101017.20
2022-08-20T04:32:59.628Z,101016.58
2022-08-20T04:34:03.285Z,101019.45
2022-08-20T04:35:08.044Z,101019.35
2022-08-20T04:36:10.824Z,101017.79
2022-08-20T04:37:17.006Z,101018.63
2022-08-20T04:38:21.245Z,101019.58
2022-08-20T04:39:24.162Z,101018.30
2022-08-20T04:40:45.289Z,101022.73
2022-08-20T04:41:48.205Z,101026.40
2022-08-20T04:42:53.214Z,101025.14
2022-08-20T04:43:58.135Z,101020.02
2022-08-20T04:45:01.257Z,101016.36
2022-08-20T04:46:11.147Z,101011.66
2022-08-20T04:47:26.804Z,101011.16
2022-08-20T04:48:40.866Z,101009.41
2022-08-20T04:49:43.591Z,101010.27
2022-08-20T04:50:47.011Z,101008.52
2022-08-20T04:51:49.774Z,101007.80
2022-08-20T04:52:52.521Z,101006.81
2022-08-20T04:53:56.409Z,101003.85
2022-08-20T04:54:59.368Z,101002.48
2022-08-20T04:56:02.644Z,101000.96
2022-08-20T04:57:05.437Z,101002.05
2022-08-20T04:58:34.144Z,101003.52
2022-08-20T04:59:37.671Z,101005.90
2022-08-20T05:00:40.707Z,101009.50
2022-08-20T05:01:43.436Z,101005.16
2022-08-20T05:02:46.248Z,101003.53
2022-08-20T05:03:49.266Z,101003.63
2022-08-20T05:04:52.618Z,101002.49
2022-08-20T05:05:56.607Z,101000.98
2022-08-20T05:06:59.323Z,101000.42
2022-08-20T05:08:02.411Z,101001.32
2022-08-20T05:09:05.801Z,101003.13
2022-08-20T05:10:10.248Z,101006.73
2022-08-20T05:11:32.862Z,101004.13
2022-08-20T05:12:37.422Z,101007.16
2022-08-20T05:13:40.316Z,101009.59
2022-08-20T05:14:43.099Z,101005.57
2022-08-20T05:15:46.054Z,101007.77
2022-08-20T05:16:48.764Z,101009.16
2022-08-20T05:17:55.087Z,101004.35
2022-08-20T05:18:57.989Z,101007.55
2022-08-20T05:20:00.777Z,101006.20
2022-08-20T05:21:06.820Z,101006.56
2022-08-20T05:22:09.618Z,101005.73
2022-08-20T05:23:13.948Z,101003.08
2022-08-20T05:24:16.817Z,101001.34
2022-08-20T05:25:21.938Z,101000.80
2022-08-20T05:26:26.397Z,101005.38
2022-08-20T05:27:30.082Z,101005.77
2022-08-20T05:28:47.201Z,101003.73
2022-08-20T05:30:22.340Z,101003.94
2022-08-20T05:31:32.467Z,101004.12
2022-08-20T05:32:44.448Z,101000.71
2022-08-20T05:33:48.886Z,100996.77
2022-08-20T05:34:51.586Z,100997.27
2022-08-20T05:35:55.107Z,100997.17
2022-08-20T05:36:58.306Z,100991.47
2022-08-20T05:38:01.698Z,100992.34
2022-08-20T05:39:04.471Z,100992.13
2022-08-20T05:40:09.054Z,100993.79
2022-08-20T05:41:11.828Z,100991.46
2022-08-20T05:42:31.778Z,100991.54
2022-08-20T05:43:34.827Z,100994.08
2022-08-20T05:44:37.940Z,100996.73
2022-08-20T05:45:41.526Z,100995.54
2022-08-20T05:46:45.117Z,100992.95
2022-08-20T05:47:48.353Z,100997.14
2022-08-20T05:49:01.614Z,100994.92
2022-08-20T05:50:05.795Z,100994.04
2022-08-20T05:51:11.026Z,100996.48
2022-08-20T05:52:18.392Z,101000.40
2022-08-20T05:53:22.069Z,101001.05
2022-08-20T05:54:25.060Z,100997.89
2022-08-20T05:55:28.570Z,100999.66
2022-08-20T05:56:32.098Z,100998.79
2022-08-20T05:57:34.988Z,100996.86
2022-08-20T05:58:37.857Z,100999.58
2022-08-20T05:59:40.650Z,100999.70
2022-08-20T06:00:43.348Z,100995.07
2022-08-20T06:01:46.057Z,100995.14
2022-08-20T06:03:07.130Z,100999.40
2022-08-20T06:04:26.857Z,100993.84
2022-08-20T06:05:29.696Z,100993.17
2022-08-20T06:06:45.689Z,100994.53
2022-08-20T06:07:50.758Z,100995.95
2022-08-20T06:08:57.536Z,100992.64
2022-08-20T06:10:00.567Z,100994.08
2022-08-20T06:11:03.757Z,100994.92
2022-08-20T06:12:07.793Z,100992.00
2022-08-20T06:13:14.035Z,100994.36
2022-08-20T06:14:17.034Z,100994.30
2022-08-20T06:15:20.725Z,100993.73
2022-08-20T06:16:28.927Z,100992.95
2022-08-20T06:17:39.292Z,100993.71
2022-08-20T06:18:58.199Z,100992.64
2022-08-20T06:20:03.405Z,100992.29
2022-08-20T06:21:08.666Z,100989.45
2022-08-20T06:22:20.470Z,100989.20
2022-08-20T06:23:26.765Z,100992.64
2022-08-20T06:24:29.486Z,100993.44
2022-08-20T06:25:37.978Z,100994.15
2022-08-20T06:26:40.757Z,100993.80
2022-08-20T06:27:44.061Z,100997.36
2022-08-20T06:28:46.810Z,101000.04
2022-08-20T06:29:50.083Z,101000.46
2022-08-20T06:30:53.550Z,101005.52
2022-08-20T06:31:57.074Z,101009.94
2022-08-20T06:32:59.887Z,101011.14
2022-08-20T06:34:02.598Z,101011.60
2022-08-20T06:35:07.721Z,101018.60
2022-08-20T06:36:10.845Z,101017.05
2022-08-20T06:37:16.041Z,101014.25
2022-08-20T06:38:18.928Z,101010.52
2022-08-20T06:39:21.705Z,101011.35
2022-08-20T06:40:26.024Z,101011.73
2022-08-20T06:41:36.216Z,101013.61
2022-08-20T06:42:47.826Z,101010.88
2022-08-20T06:43:54.028Z,101011.84
2022-08-20T06:44:59.557Z,101008.73
2022-08-20T06:46:02.448Z,101012.17
2022-08-20T06:47:06.025Z,101009.73
2022-08-20T06:48:10.304Z,101010.23
2022-08-20T06:49:18.638Z,101004.66
2022-08-20T06:50:29.569Z,101007.82
2022-08-20T06:51:32.801Z,101008.08
2022-08-20T06:52:52.385Z,101007.14
2022-08-20T06:53:56.355Z,101008.30
2022-08-20T06:54:59.117Z,101009.50
2022-08-20T06:56:02.105Z,101011.21
2022-08-20T06:57:04.992Z,101009.39
2022-08-20T06:58:10.441Z,101012.09
2022-08-20T06:59:31.649Z,101014.66
2022-08-20T07:00:35.878Z,101013.45
2022-08-20T07:01:38.642Z,101017.06
2022-08-20T07:02:41.936Z,101015.52
2022-08-20T07:03:55.125Z,101017.33
2022-08-20T07:04:58.704Z,101018.98
2022-08-20T07:06:01.848Z,101021.64
2022-08-20T07:07:04.816Z,101022.16
2022-08-20T07:08:08.544Z,101025.44
2022-08-20T07:09:11.215Z,101026.77
2022-08-20T07:10:14.832Z,101028.02
2022-08-20T07:11:17.688Z,101028.54
2022-08-20T07:12:20.414Z,101027.34
2022-08-20T07:13:23.185Z,101028.35
2022-08-20T07:14:28.249Z,101031.25
2022-08-20T07:15:31.024Z,101031.00
2022-08-20T07:16:34.027Z,101029.93
2022-08-20T07:17:37.785Z,101028.77
2022-08-20T07:18:40.562Z,101031.66
2022-08-20T07:19:43.263Z,101032.89
2022-08-20T07:20:46.069Z,101034.52
2022-08-20T07:21:49.391Z,101035.67
2022-08-20T07:22:52.606Z,101040.45
2022-08-20T07:23:55.439Z,101039.73
2022-08-20T07:24:58.127Z,101041.80
2022-08-20T07:26:00.977Z,101045.67
2022-08-20T07:27:04.364Z,101044.61
2022-08-20T07:28:09.006Z,101045.58
2022-08-20T07:29:11.758Z,101045.47
2022-08-20T07:30:55.873Z,101046.80
2022-08-20T07:32:17.623Z,101044.70
2022-08-20T07:33:26.158Z,101043.00
2022-08-20T07:34:31.427Z,101041.90
2022-08-20T07:35:34.579Z,101036.90
2022-08-20T07:36:37.887Z,101040.38
2022-08-20T07:37:42.051Z,101040.11
2022-08-20T07:38:47.452Z,101042.45
2022-08-20T07:39:50.367Z,101043.45
2022-08-20T07:40:54.216Z,101042.41
2022-08-20T07:42:03.423Z,101044.16
2022-08-20T07:43:06.336Z,101037.54
2022-08-20T07:44:12.327Z,101038.35
2022-08-20T07:45:15.251Z,101040.16
2022-08-20T07:46:20.818Z,101043.00
2022-08-20T07:47:23.796Z,101041.07
2022-08-20T07:48:31.713Z,101040.66
2022-08-20T07:49:38.935Z,101042.05
2022-08-20T07:50:43.069Z,101046.41
2022-08-20T07:51:45.883Z,101051.13
2022-08-20T07:52:48.622Z,101048.79
2022-08-20T07:53:51.844Z,101049.30
2022-08-20T07:54:54.724Z,101051.71
2022-08-20T07:55:59.330Z,101053.81
2022-08-20T07:57:03.343Z,101050.52
2022-08-20T07:58:07.827Z,101054.81
2022-08-20T07:59:10.583Z,101058.12
2022-08-20T08:00:13.868Z,101060.52
2022-08-20T08:01:26.012Z,101059.23
2022-08-20T08:02:29.167Z,101062.98
2022-08-20T08:03:39.333Z,101066.65
2022-08-20T08:04:52.385Z,101068.52
2022-08-20T08:05:55.342Z,101073.30
2022-08-20T08:07:00.221Z,101070.88
2022-08-20T08:08:07.173Z,101069.49
2022-08-20T08:09:13.122Z,101069.77
2022-08-20T08:10:18.585Z,101067.37
2022-08-20T08:11:21.422Z,101073.84
2022-08-20T08:12:29.013Z,101066.23
2022-08-20T08:13:35.775Z,101076.50
2022-08-20T08:14:40.168Z,101080.46
2022-08-20T08:15:46.526Z,101078.62
2022-08-20T08:16:49.392Z,101079.63
2022-08-20T08:17:52.968Z,101077.91
2022-08-20T08:18:56.875Z,101077.77
2022-08-20T08:20:00.278Z,101077.29
2022-08-20T08:21:03.120Z,101079.03
2022-08-20T08:22:07.959Z,101080.87
2022-08-20T08:23:24.725Z,101081.35
2022-08-20T08:24:34.820Z,101080.17
2022-08-20T08:25:42.607Z,101081.32
2022-08-20T08:26:45.305Z,101080.73
2022-08-20T08:27:48.838Z,101082.96
2022-08-20T08:28:51.728Z,101079.41
2022-08-20T08:29:54.613Z,101080.92
2022-08-20T08:30:57.771Z,101083.13
2022-08-20T08:32:01.436Z,101080.08
2022-08-20T08:33:23.026Z,101079.60
2022-08-20T08:34:25.700Z,101081.70
2022-08-20T08:35:29.465Z,101084.58
2022-08-20T08:36:32.231Z,101083.17
2022-08-20T08:37:35.701Z,101085.11
2022-08-20T08:38:39.934Z,101083.42
2022-08-20T08:39:42.711Z,101085.92
2022-08-20T08:40:45.522Z,101085.48
2022-08-20T08:41:49.978Z,101087.84
2022-08-20T08:42:58.340Z,101081.91
2022-08-20T08:44:07.285Z,101079.48
2022-08-20T08:45:10.843Z,101076.97
2022-08-20T08:46:17.942Z,101078.55
2022-08-20T08:47:39.418Z,101077.42
2022-08-20T08:48:44.442Z,101082.98
2022-08-20T08:49:48.021Z,101082.46
2022-08-20T08:50:54.788Z,101078.58
2022-08-20T08:51:57.556Z,101085.79
2022-08-20T08:53:01.298Z,101085.02
2022-08-20T08:54:07.187Z,101081.33
2022-08-20T08:55:16.078Z,101087.15
2022-08-20T08:56:19.045Z,101082.21
2022-08-20T08:57:21.820Z,101085.14
2022-08-20T08:58:24.585Z,101081.34
2022-08-20T08:59:48.448Z,101076.16
2022-08-20T09:00:57.544Z,101074.88
2022-08-20T09:02:02.759Z,101074.58
2022-08-20T09:03:12.949Z,101073.13
2022-08-20T09:04:17.057Z,101070.09
2022-08-20T09:05:27.470Z,101072.29
2022-08-20T09:06:30.942Z,101070.81
2022-08-20T09:07:34.720Z,101072.94
2022-08-20T09:08:43.778Z,101068.89
2022-08-20T09:09:46.944Z,101066.42
2022-08-20T09:10:49.990Z,101062.22
2022-08-20T09:11:55.039Z,101066.77
2022-08-20T09:12:57.922Z,101061.55
2022-08-20T09:14:01.586Z,101064.21
2022-08-20T09:15:06.367Z,101062.07
2022-08-20T09:16:09.360Z,101063.33
2022-08-20T09:17:12.301Z,101065.86
2022-08-20T09:18:15.069Z,101068.52
2022-08-20T09:19:18.102Z,101064.34
2022-08-20T09:20:21.227Z,101071.48
2022-08-20T09:21:29.973Z,101065.21
2022-08-20T09:22:33.505Z,101065.83
2022-08-20T09:23:36.391Z,101066.52
2022-08-20T09:24:39.255Z,101071.09
2022-08-20T09:25:42.206Z,101070.23
2022-08-20T09:26:44.888Z,101066.52
2022-08-20T09:27:47.600Z,101066.48
2022-08-20T09:28:52.287Z,101067.83
2022-08-20T09:29:55.236Z,101064.70
2022-08-20T09:30:58.574Z,101065.60
2022-08-20T09:32:09.322Z,101067.29
2022-08-20T09:33:12.477Z,101067.41
2022-08-20T09:34:15.259Z,101066.62
2022-08-20T09:35:17.992Z,101060.42
2022-08-20T09:36:29.248Z,101065.33
2022-08-20T09:37:37.555Z,101063.85
2022-08-20T09:38:41.069Z,101059.38
2022-08-20T09:39:43.906Z,101062.45
2022-08-20T09:40:46.723Z,101057.80
2022-08-20T09:41:49.391Z,101055.54
2022-08-20T09:42:52.233Z,101057.42
2022-08-20T09:43:55.149Z,101054.57
2022-08-20T09:44:58.372Z,101054.72
2022-08-20T09:46:01.060Z,101053.65
2022-08-20T09:47:04.628Z,101055.54
2022-08-20T09:48:10.253Z,101055.53
2022-08-20T09:49:13.236Z,101052.81
2022-08-20T09:50:15.996Z,101054.45
2022-08-20T09:51:18.696Z,101049.34
2022-08-20T09:52:26.424Z,101050.91
2022-08-20T09:53:29.907Z,101053.52
2022-08-20T09:54:33.934Z,101047.58
2022-08-20T09:55:38.061Z,101049.80
2022-08-20T09:56:40.999Z,101047.52
2022-08-20T09:57:43.921Z,101049.52
2022-08-20T09:58:51.142Z,101050.51
2022-08-20T09:59:59.659Z,101048.84
2022-08-20T10:01:06.232Z,101051.24
2022-08-20T10:02:16.685Z,101048.45
2022-08-20T10:03:19.763Z,101046.19
2022-08-20T10:04:22.964Z,101045.90
2022-08-20T10:05:25.816Z,101046.84
2022-08-20T10:06:29.010Z,101044.16
2022-08-20T10:07:31.805Z,101044.81
2022-08-20T10:08:34.537Z,101052.89
2022-08-20T10:09:37.397Z,101048.88
2022-08-20T10:10:42.357Z,101049.23
2022-08-20T10:11:45.164Z,101048.09
2022-08-20T10:12:50.554Z,101049.04
2022-08-20T10:13:56.916Z,101050.62
2022-08-20T10:14:59.621Z,101046.86
2022-08-20T10:16:02.580Z,101048.96
2022-08-20T10:17:05.592Z,101044.55
2022-08-20T10:18:08.358Z,101044.48
2022-08-20T10:19:11.092Z,101047.08
2022-08-20T10:20:14.740Z,101041.04
2022-08-20T10:21:17.723Z,101045.20
2022-08-20T10:22:20.525Z,101043.35
2022-08-20T10:23:23.267Z,101046.02
2022-08-20T10:24:26.968Z,101045.41
2022-08-20T10:25:29.771Z,101047.23
2022-08-20T10:26:32.794Z,101044.48
2022-08-20T10:27:35.510Z,101045.19
2022-08-20T10:28:39.732Z,101044.29
2022-08-20T10:29:46.756Z,101043.13
2022-08-20T10:30:49.744Z,101046.11
2022-08-20T10:31:53.246Z,101047.88
2022-08-20T10:32:55.941Z,101041.91
2022-08-20T10:33:58.750Z,101038.64
2022-08-20T10:35:01.880Z,101038.36
2022-08-20T10:36:08.494Z,101037.38
2022-08-20T10:37:16.120Z,101036.64
2022-08-20T10:38:18.903Z,101031.98
2022-08-20T10:39:21.751Z,101032.27
2022-08-20T10:40:24.701Z,101030.77
2022-08-20T10:41:28.370Z,101036.00
2022-08-20T10:42:31.314Z,101039.91
2022-08-20T10:43:34.205Z,101037.05
2022-08-20T10:44:37.190Z,101033.61
2022-08-20T10:45:40.371Z,101036.63
2022-08-20T10:46:45.702Z,101033.64
2022-08-20T10:47:48.726Z,101034.23
2022-08-20T10:48:51.666Z,101033.24
2022-08-20T10:49:55.310Z,101032.96
2022-08-20T10:50:58.263Z,101031.64
2022-08-20T10:52:00.989Z,101035.35
2022-08-20T10:53:08.777Z,101031.41
2022-08-20T10:54:12.587Z,101031.43
2022-08-20T10:55:16.167Z,101032.46
2022-08-20T10:56:19.011Z,101033.86
2022-08-20T10:57:29.261Z,101032.09
2022-08-20T10:58:39.226Z,101023.30
2022-08-20T10:59:44.047Z,101022.20
2022-08-20T11:00:47.376Z,101022.71
2022-08-20T11:01:50.253Z,101021.92
2022-08-20T11:02:52.992Z,101022.92
2022-08-20T11:03:56.310Z,101025.55
2022-08-20T11:04:58.967Z,101026.43
2022-08-20T11:06:02.000Z,101028.02
2022-08-20T11:07:11.529Z,101027.90
2022-08-20T11:08:14.266Z,101028.20
2022-08-20T11:09:17.351Z,101031.98
2022-08-20T11:10:20.067Z,101037.42
2022-08-20T11:11:22.851Z,101040.45
2022-08-20T11:12:26.281Z,101040.91
2022-08-20T11:13:29.044Z,101039.26
2022-08-20T11:14:31.725Z,101039.71
2022-08-20T11:15:36.867Z,101035.18
2022-08-20T11:16:39.559Z,101036.16
2022-08-20T11:17:43.423Z,101030.01
2022-08-20T11:18:47.535Z,101034.46
2022-08-20T11:19:51.203Z,101030.02
2022-08-20T11:20:54.092Z,101029.23
2022-08-20T11:21:56.776Z,101032.41
2022-08-20T11:22:59.588Z,101029.82
2022-08-20T11:24:03.190Z,101029.86
2022-08-20T11:25:06.815Z,101029.14
2022-08-20T11:26:09.913Z,101029.88
2022-08-20T11:27:17.848Z,101031.05
2022-08-20T11:28:31.780Z,101029.41
2022-08-20T11:29:35.779Z,101029.30
2022-08-20T11:30:38.739Z,101031.09
2022-08-20T11:31:41.632Z,101032.27
2022-08-20T11:32:44.371Z,101035.14
2022-08-20T11:33:47.169Z,101033.29
2022-08-20T11:34:50.190Z,101036.36
2022-08-20T11:35:53.037Z,101035.02
2022-08-20T11:36:56.817Z,101036.03
2022-08-20T11:37:59.968Z,101032.91
2022-08-20T11:39:02.650Z,101032.31
2022-08-20T11:40:06.701Z,101030.08
2022-08-20T11:41:09.627Z,101028.15
2022-08-20T11:42:12.383Z,101029.27
2022-08-20T11:43:16.965Z,101024.75
2022-08-20T11:44:21.673Z,101025.52
2022-08-20T11:45:24.693Z,101025.05
2022-08-20T11:46:28.687Z,101025.28
2022-08-20T11:47:33.707Z,101025.21
2022-08-20T11:48:36.668Z,101028.17
2022-08-20T11:49:39.462Z,101025.54
2022-08-20T11:50:42.311Z,101023.41
2022-08-20T11:51:49.643Z,101021.19
2022-08-20T11:52:52.990Z,101024.84
2022-08-20T11:53:55.740Z,101025.20
2022-08-20T11:55:00.136Z,101021.65
2022-08-20T11:56:03.232Z,101019.38
2022-08-20T11:57:06.780Z,101024.43
2022-08-20T11:58:10.111Z,101021.20
2022-08-20T11:59:13.595Z,101019.73
2022-08-20T12:00:20.452Z,101020.36
2022-08-20T12:01:35.257Z,101018.83
2022-08-20T12:02:38.348Z,101017.04
2022-08-20T12:03:41.138Z,101012.29
2022-08-20T12:04:43.901Z,101012.66
2022-08-20T12:05:47.280Z,101012.88
2022-08-20T12:06:49.966Z,101011.13
2022-08-20T12:07:52.771Z,101010.75
2022-08-20T12:08:55.510Z,101007.64
2022-08-20T12:09:58.494Z,101008.30
2022-08-20T12:11:02.486Z,101009.48
2022-08-20T12:12:05.538Z,101005.87
2022-08-20T12:13:08.685Z,101009.79
2022-08-20T12:14:11.418Z,101013.55
2022-08-20T12:15:14.167Z,101012.67
2022-08-20T12:16:18.301Z,101011.67
2022-08-20T12:17:23.993Z,101010.02
2022-08-20T12:18:27.185Z,101012.70
2022-08-20T12:19:29.863Z,101017.92
2022-08-20T12:20:32.672Z,101019.70
2022-08-20T12:21:35.430Z,101022.52
2022-08-20T12:22:38.456Z,101027.48
2022-08-20T12:23:41.324Z,101031.20